»·PEaware :: QXE2276 KSEA-KPDX

QXE2276 :: KSEA-KPDX

FLIGHT INFORMATION

Flight Status: Arrived
Operator:
Horizon Air
More flights by this operator :: More flights under this callsign
Pilot: Chad G. (1197)
Aircraft: DEHAVILLAND DASH 8 400
(DH8D)
More flights by this aircraft type
Origin: KSEA Seattle-Tacoma Intl
United States
Destination: KPDX Portland Intl
United States
More flights between these airports :: More routes between these airports
Route: +SEA7 BUWZO KRATR2
File this flight plan on PilotEdge
Remarks:
Altitude:
(Current/Filed)
17,000ft
Speed:
(Current/Filed)
313kts
Departed: 09-Mar-19 08:23 PM
Arrived: 09-Mar-19 08:54 PM
Distance/Time
Traveled:
112nm/0:31
Distance/Time
To Go:
Arrived

Flight Plot

Page will automatically refresh every two minutes.

Flight plan parsing failed; only flown route is shown


Map Options




Map Legend


Flown Route
Filed Route
Departure Airport
Arrival Airport
Navaid (VOR, NDB)
Fix

Horizontal Profiles

Position Reports

Time Latitude Longitude Heading Altitude Ground
Speed
09-Mar-19 19:53 47.443732 -122.304400 358 440ft 0kts
09-Mar-19 19:54 47.443732 -122.304400 358 440ft 0kts
09-Mar-19 19:55 47.443732 -122.304400 358 440ft 0kts
09-Mar-19 19:56 47.443732 -122.304400 358 440ft 0kts
09-Mar-19 19:57 47.443732 -122.304400 358 440ft 0kts
09-Mar-19 19:58 47.443732 -122.304400 358 440ft 0kts
09-Mar-19 19:59 47.443732 -122.304400 358 440ft 0kts
09-Mar-19 20:00 47.443732 -122.304400 358 440ft 0kts
09-Mar-19 20:01 47.443732 -122.304400 358 440ft 0kts
09-Mar-19 20:02 47.443732 -122.304400 358 440ft 0kts
09-Mar-19 20:03 47.443732 -122.304400 358 440ft 0kts
09-Mar-19 20:04 47.443732 -122.304400 358 440ft 0kts
09-Mar-19 20:05 47.443732 -122.304400 358 440ft 0kts
09-Mar-19 20:06 47.443732 -122.304400 358 440ft 0kts
09-Mar-19 20:07 47.443732 -122.304400 358 440ft 0kts
09-Mar-19 20:08 47.443732 -122.304400 358 440ft 0kts
09-Mar-19 20:08 47.443732 -122.304400 358 440ft 0kts
09-Mar-19 20:10 47.443732 -122.304400 358 440ft 0kts
09-Mar-19 20:11 47.443732 -122.304400 358 440ft 0kts
09-Mar-19 20:11 47.443732 -122.304400 358 440ft 0kts
09-Mar-19 20:12 47.443732 -122.304400 358 440ft 0kts
09-Mar-19 20:13 47.443165 -122.304314 274 440ft 0kts
09-Mar-19 20:14 47.443165 -122.304314 274 440ft 0kts
09-Mar-19 20:15 47.443165 -122.304314 274 440ft 0kts
09-Mar-19 20:16 47.443165 -122.304314 274 440ft 0kts
09-Mar-19 20:17 47.443165 -122.304314 274 440ft 0kts
09-Mar-19 20:18 47.443195 -122.304901 274 441ft 2kts
09-Mar-19 20:19 47.442697 -122.306355 179 441ft 10kts
09-Mar-19 20:20 47.439030 -122.306391 179 441ft 13kts
09-Mar-19 20:21 47.438066 -122.307562 268 441ft 8kts
09-Mar-19 20:22 47.444879 -122.307975 359 442ft 114kts
09-Mar-19 20:23 47.487651 -122.306696 1 2155ft 195kts
09-Mar-19 20:24 47.548837 -122.312178 329 4134ft 237kts
09-Mar-19 20:25 47.546795 -122.396415 209 6659ft 249kts
09-Mar-19 20:26 47.477108 -122.395991 172 9178ft 257kts
09-Mar-19 20:27 47.403626 -122.384214 172 11143ft 274kts
09-Mar-19 20:28 47.323781 -122.371381 171 12680ft 290kts
09-Mar-19 20:29 47.240277 -122.357910 170 14227ft 296kts
09-Mar-19 20:30 47.155922 -122.344214 170 15769ft 297kts
09-Mar-19 20:31 47.071446 -122.330282 169 16938ft 309kts
09-Mar-19 20:32 46.978932 -122.314084 169 17017ft 344kts
09-Mar-19 20:33 46.878283 -122.308586 178 17020ft 365kts
09-Mar-19 20:34 46.773286 -122.309893 176 17020ft 373kts
09-Mar-19 20:35 46.665482 -122.309676 176 17020ft 376kts
09-Mar-19 20:36 46.557623 -122.309689 176 16082ft 369kts
09-Mar-19 20:37 46.455953 -122.309418 177 14363ft 352kts
09-Mar-19 20:38 46.357185 -122.309423 177 12693ft 338kts
09-Mar-19 20:39 46.262706 -122.311288 186 11171ft 319kts
09-Mar-19 20:40 46.181592 -122.351162 199 11006ft 297kts
09-Mar-19 20:41 46.102687 -122.395742 199 10275ft 294kts
09-Mar-19 20:42 46.025983 -122.437430 198 9347ft 284kts
09-Mar-19 20:43 45.952257 -122.477061 198 7517ft 269kts
09-Mar-19 20:44 45.891068 -122.537628 219 7005ft 253kts
09-Mar-19 20:45 45.837466 -122.605961 220 6280ft 248kts
09-Mar-19 20:46 45.786049 -122.671182 220 5016ft 227kts
09-Mar-19 20:47 45.737873 -122.725538 208 4252ft 213kts
09-Mar-19 20:48 45.687990 -122.764097 187 3062ft 192kts
09-Mar-19 20:49 45.646895 -122.722718 123 2015ft 186kts
09-Mar-19 20:50 45.623766 -122.670432 118 1212ft 124kts
09-Mar-19 20:51 45.607894 -122.629061 117 577ft 112kts
09-Mar-19 20:52 45.592422 -122.589447 120 38ft 91kts
09-Mar-19 20:53 45.586495 -122.576227 208 38ft 5kts
09-Mar-19 20:54 45.587572 -122.580272 299 38ft 17kts
09-Mar-19 20:55 45.589534 -122.586809 263 38ft 17kts
09-Mar-19 20:56 45.591793 -122.593263 299 38ft 17kts
09-Mar-19 20:57 45.591508 -122.599070 235 38ft 15kts
09-Mar-19 20:58 45.588770 -122.599721 119 38ft 14kts
09-Mar-19 20:59 45.586538 -122.594205 128 38ft 16kts
09-Mar-19 21:00 45.585614 -122.591816 61 38ft 2kts
09-Mar-19 21:01 45.585661 -122.591667 67 37ft 0kts

Navigation Log

Ident Type
Flight plan parsing failed, navigation log unavailable